Time;durP1;ratioP1;P1;durP2;ratioP2;P2;SDS_P1;SDS_P2;PMS_P1;PMS_P2;Temp;Humidity;BMP_temperature;BMP_pressure;BME280_temperature;BME280_humidity;BME280_pressure;Samples;Min_cycle;Max_cycle;Signal;HPM_P1;HPM_P2
2023/09/04 00:04:14;;;;;;;5.80;4.30;;;;;;;14.39;74.81;99567.75;435444;1250;107548;-43
2023/09/04 00:14:21;;;;;;;6.00;3.30;;;;;;;14.25;74.99;99569.96;435486;1253;97867;-44
2023/09/04 00:24:27;;;;;;;4.90;3.40;;;;;;;14.16;75.07;99575.73;435433;1253;108386;-44
2023/09/04 00:34:34;;;;;;;7.70;3.80;;;;;;;14.07;75.25;99575.98;434881;1253;536564;-45
2023/09/04 00:44:43;;;;;;;7.50;3.80;;;;;;;13.94;75.80;99590.20;435246;1250;110120;-42
2023/09/04 00:54:51;;;;;;;11.90;3.50;;;;;;;13.81;75.94;99599.85;435358;1253;108142;-43
2023/09/04 01:04:58;;;;;;;5.40;2.90;;;;;;;13.75;76.22;99599.75;435440;1253;97858;-43
2023/09/04 01:15:04;;;;;;;6.40;3.20;;;;;;;13.72;76.59;99604.10;435496;1253;109677;-43
2023/09/04 01:25:13;;;;;;;11.80;3.70;;;;;;;13.69;76.58;99594.58;436239;1247;108078;-44
2023/09/04 01:35:25;;;;;;;5.00;3.60;;;;;;;13.63;76.79;99592.50;437118;1251;97492;-42
2023/09/04 01:55:37;;;;;;;3.20;2.70;;;;;;;13.47;76.80;99600.42;436938;1251;97872;-44
2023/09/04 02:05:44;;;;;;;8.70;3.30;;;;;;;13.47;76.99;99594.09;436990;1253;110047;-43
2023/09/04 02:15:51;;;;;;;9.20;4.10;;;;;;;13.40;76.97;99601.83;437293;1247;107484;-42
2023/09/04 02:25:58;;;;;;;5.50;3.60;;;;;;;13.33;77.19;99610.56;437053;1248;97878;-42
2023/09/04 02:36:06;;;;;;;7.60;3.50;;;;;;;13.25;77.34;99636.27;437201;1253;107814;-45
2023/09/04 02:46:13;;;;;;;5.60;3.30;;;;;;;13.18;77.38;99644.54;437322;1254;97861;-44
2023/09/04 02:56:20;;;;;;;6.10;3.40;;;;;;;13.15;77.64;99643.63;437346;1251;110297;-44
2023/09/04 03:06:25;;;;;;;9.30;5.00;;;;;;;13.15;78.18;99624.41;437228;1248;107823;-44
2023/09/04 03:16:32;;;;;;;7.00;3.30;;;;;;;13.20;78.18;99626.50;437384;1247;97881;-42
2023/09/04 03:26:39;;;;;;;5.60;3.50;;;;;;;13.30;78.27;99614.77;437226;1252;108900;-43
2023/09/04 03:36:48;;;;;;;4.60;3.40;;;;;;;13.42;78.37;99621.23;437140;1253;97900;-42
2023/09/04 03:46:54;;;;;;;;;;;;;;;13.45;78.50;99626.98;437430;1253;110602;-44
2023/09/04 03:57:00;;;;;;;5.90;4.50;;;;;;;13.40;78.56;99630.56;437612;1253;108578;-45
2023/09/04 04:07:08;;;;;;;10.60;6.80;;;;;;;13.38;78.62;99648.25;437658;1248;97867;-42
2023/09/04 04:27:22;;;;;;;8.90;6.90;;;;;;;13.50;78.86;99662.25;437200;1253;97429;-43
2023/09/04 04:37:28;;;;;;;9.60;5.10;;;;;;;13.57;78.86;99681.64;437231;1251;108553;-42
2023/09/04 04:57:41;;;;;;;6.10;5.50;;;;;;;13.58;78.95;99697.71;437234;1253;97962;-42
2023/09/04 05:07:48;;;;;;;8.00;4.50;;;;;;;13.74;79.04;99691.23;437292;1254;110745;-42
2023/09/04 05:17:55;;;;;;;24.20;4.80;;;;;;;14.63;79.53;99703.41;437332;1253;107411;-43
2023/09/04 05:38:10;;;;;;;18.10;4.60;;;;;;;17.71;78.14;99694.91;436294;1253;112949;-44
2023/09/04 05:48:15;;;;;;;8.60;3.20;;;;;;;18.75;76.27;99707.09;436444;1252;108475;-42
2023/09/04 05:58:23;;;;;;;7.70;4.20;;;;;;;17.72;74.44;99702.83;436375;1253;97888;-43
2023/09/04 06:18:36;;;;;;;7.40;3.50;;;;;;;17.07;74.55;99710.46;436324;1252;108482;-45
2023/09/04 06:28:43;;;;;;;5.80;3.50;;;;;;;16.90;74.54;99715.96;436400;1251;97882;-43
2023/09/04 06:38:50;;;;;;;11.00;4.00;;;;;;;16.81;74.84;99730.16;436331;1253;107412;-42
2023/09/04 06:59:04;;;;;;;6.80;2.90;;;;;;;16.81;74.53;99739.82;436290;1254;110132;-42
2023/09/04 07:29:23;;;;;;;11.00;4.80;;;;;;;18.39;73.64;99779.83;436387;1253;108645;-43
2023/09/04 07:39:28;;;;;;;12.80;4.60;;;;;;;18.87;72.83;99788.76;436469;1253;96640;-44
2023/09/04 07:49:33;;;;;;;7.40;3.70;;;;;;;18.96;71.95;99791.23;436427;1251;110671;-42
2023/09/04 08:09:45;;;;;;;3.60;2.20;;;;;;;19.90;70.35;99793.78;436361;1253;97354;-43
2023/09/04 08:19:52;;;;;;;8.30;2.60;;;;;;;20.54;70.11;99778.63;436414;1254;110786;-42
2023/09/04 08:29:58;;;;;;;8.00;1.90;;;;;;;20.37;67.25;99782.00;436371;1254;107326;-42
2023/09/04 08:40:06;;;;;;;9.00;3.40;;;;;;;20.33;66.84;99782.20;436391;1254;98082;-41
2023/09/04 09:00:19;;;;;;;4.10;1.90;;;;;;;20.26;65.04;99798.68;436401;1254;107965;-43
2023/09/04 09:10:25;;;;;;;12.00;3.20;;;;;;;19.57;65.18;99790.91;436487;1248;97860;-43
2023/09/04 09:40:39;;;;;;;6.90;2.40;;;;;;;21.07;63.84;99775.79;436369;1255;97891;-42
2023/09/04 09:50:48;;;;;;;7.70;2.80;;;;;;;20.98;62.47;99779.49;436485;1253;110437;-42
2023/09/04 10:11:00;;;;;;;3.50;2.30;;;;;;;20.79;60.83;99772.08;436505;1248;97906;-43
2023/09/04 10:21:07;;;;;;;5.20;2.30;;;;;;;20.92;60.76;99762.45;436384;1247;110038;-43
2023/09/04 10:31:15;;;;;;;6.70;3.40;;;;;;;20.94;61.06;99757.01;436279;1253;107454;-41
2023/09/04 10:51:30;;;;;;;4.80;2.90;;;;;;;20.98;59.97;99763.73;436099;1253;110841;-43
2023/09/04 11:01:35;;;;;;;4.30;2.70;;;;;;;21.23;59.69;99770.71;436438;1261;106664;-43
2023/09/04 11:11:41;;;;;;;4.10;2.20;;;;;;;21.24;59.46;99767.32;436399;1254;120386;-43
2023/09/04 11:21:48;;;;;;;4.70;2.50;;;;;;;21.34;58.62;99749.56;436252;1253;109482;-43
2023/09/04 11:31:56;;;;;;;4.60;2.30;;;;;;;21.29;57.65;99751.14;436239;1254;97479;-43
2023/09/04 11:42:23;;;;;;;7.50;2.70;;;;;;;21.35;57.67;99745.74;436304;1247;110619;-43
2023/09/04 11:52:28;;;;;;;5.40;2.50;;;;;;;21.00;57.05;99743.79;436304;1253;108520;-42
2023/09/04 12:02:39;;;;;;;3.40;2.40;;;;;;;21.16;56.70;99753.02;436333;1254;97751;-44
2023/09/04 12:12:47;;;;;;;3.90;1.80;;;;;;;21.20;56.65;99752.90;436419;1253;111068;-43
2023/09/04 12:22:56;;;;;;;4.30;2.30;;;;;;;21.05;56.28;99750.45;436326;1248;108712;-42
2023/09/04 12:43:10;;;;;;;5.80;2.70;;;;;;;21.42;56.70;99734.80;436266;1254;110686;-44
2023/09/04 12:53:17;;;;;;;4.80;2.40;;;;;;;21.19;56.08;99731.13;436412;1253;107957;-43
2023/09/04 13:03:24;;;;;;;5.30;2.80;;;;;;;20.92;55.93;99721.20;436613;1254;97656;-46
2023/09/04 13:13:32;;;;;;;6.80;2.60;;;;;;;20.96;55.90;99717.98;436307;1254;110788;-44
2023/09/04 13:33:45;;;;;;;5.00;2.20;;;;;;;21.07;55.51;99702.85;436299;1252;97880;-44
2023/09/04 13:43:51;;;;;;;7.60;2.70;;;;;;;21.02;55.71;99702.36;436231;1254;108143;-43
2023/09/04 13:53:57;;;;;;;3.40;2.20;;;;;;;21.08;55.73;99698.38;436252;1248;97883;-43
2023/09/04 14:14:11;;;;;;;8.20;3.10;;;;;;;20.69;55.98;99701.77;436351;1254;107604;-44
2023/09/04 14:24:16;;;;;;;9.60;2.30;;;;;;;20.91;55.94;99700.73;436300;1248;97502;-43
2023/09/04 14:34:23;;;;;;;7.80;2.90;;;;;;;20.67;55.78;99710.41;436394;1253;110798;-43
2023/09/04 14:44:30;;;;;;;5.50;2.50;;;;;;;20.72;56.09;99701.34;436362;1248;107207;-42
2023/09/04 14:54:37;;;;;;;9.00;2.80;;;;;;;20.67;55.63;99695.63;436257;1247;98388;-42
2023/09/04 15:04:44;;;;;;;5.50;3.30;;;;;;;20.56;55.93;99693.98;436275;1253;112570;-44
2023/09/04 15:14:52;;;;;;;10.10;4.60;;;;;;;20.57;55.76;99694.73;436336;1248;108307;-43
2023/09/04 15:24:59;;;;;;;8.90;3.80;;;;;;;20.38;56.10;99703.14;436259;1253;96622;-42
2023/09/04 15:35:05;;;;;;;5.90;2.60;;;;;;;20.22;56.54;99702.80;436324;1247;110622;-42
2023/09/04 15:45:11;;;;;;;8.40;3.10;;;;;;;20.14;56.61;99697.25;436312;1248;109144;-43
2023/09/04 15:55:18;;;;;;;6.20;2.60;;;;;;;20.11;56.77;99673.30;436339;1253;97883;-42
2023/09/04 16:05:27;;;;;;;6.70;3.50;;;;;;;19.98;56.76;99675.63;436156;1249;110665;-42
2023/09/04 16:15:34;;;;;;;7.60;3.00;;;;;;;19.84;56.75;99682.80;436451;1253;107527;-45
2023/09/04 16:25:40;;;;;;;7.20;3.00;;;;;;;19.67;56.78;99686.17;436488;1253;96668;-43
2023/09/04 16:35:47;;;;;;;13.10;3.70;;;;;;;19.56;57.42;99684.25;436354;1247;108894;-43
2023/09/04 16:45:54;;;;;;;9.70;3.40;;;;;;;19.35;57.68;99689.98;436586;1247;97909;-42
2023/09/04 16:56:02;;;;;;;16.20;3.50;;;;;;;19.09;58.34;99696.82;436268;1247;110606;-44
2023/09/04 17:06:08;;;;;;;5.70;3.60;;;;;;;18.81;59.07;99702.10;436517;1253;108440;-44
2023/09/04 17:16:15;;;;;;;11.50;3.90;;;;;;;18.52;59.82;99708.66;436291;1247;97479;-45
2023/09/04 17:36:27;;;;;;;9.00;3.80;;;;;;;17.94;61.72;99710.67;436458;1248;108267;-43
2023/09/04 17:46:34;;;;;;;10.60;5.20;;;;;;;17.48;62.62;99719.88;436418;1252;96616;-43
2023/09/04 17:56:42;;;;;;;7.00;4.20;;;;;;;17.06;63.45;99721.81;436268;1255;111072;-43
2023/09/04 18:06:47;;;;;;;11.60;5.50;;;;;;;16.69;64.17;99729.90;436280;1253;108485;-43
2023/09/04 18:16:54;;;;;;;17.60;7.70;;;;;;;16.43;65.02;99737.40;436394;1253;97895;-43
2023/09/04 18:27:03;;;;;;;12.10;7.10;;;;;;;16.16;65.77;99739.32;436415;1247;109550;-44
2023/09/04 18:37:09;;;;;;;17.70;8.50;;;;;;;15.88;66.30;99744.76;436214;1253;107634;-43
2023/09/04 18:47:16;;;;;;;15.40;7.50;;;;;;;15.70;67.00;99744.66;436373;1253;96997;-43
2023/09/04 18:57:24;;;;;;;11.90;7.30;;;;;;;15.56;67.47;99751.98;436385;1248;110844;-42
2023/09/04 19:07:28;;;;;;;16.00;7.30;;;;;;;15.25;67.89;99745.71;436426;1253;108079;-43
2023/09/04 19:17:35;;;;;;;13.50;6.40;;;;;;;15.02;68.43;99739.52;436171;1247;97900;-44
2023/09/04 19:27:41;;;;;;;15.60;6.20;;;;;;;14.95;69.16;99745.88;436237;1253;109095;-42
2023/09/04 19:37:48;;;;;;;16.80;6.50;;;;;;;14.88;69.51;99759.75;436382;1253;97877;-42
2023/09/04 19:47:55;;;;;;;19.70;8.50;;;;;;;14.79;69.99;99760.71;436281;1247;110587;-42
2023/09/04 19:58:02;;;;;;;16.20;8.20;;;;;;;14.49;70.43;99759.20;436493;1248;109365;-42
2023/09/04 20:18:15;;;;;;;16.70;8.50;;;;;;;14.25;71.35;99756.59;436336;1253;108262;-43
2023/09/04 20:28:23;;;;;;;18.70;8.30;;;;;;;14.23;71.90;99763.31;436402;1248;96729;-43
2023/09/04 20:38:30;;;;;;;17.00;8.60;;;;;;;14.10;72.01;99764.67;436464;1247;110437;-42
2023/09/04 20:48:38;;;;;;;24.00;10.00;;;;;;;13.87;72.44;99773.96;436428;1247;108487;-42
2023/09/04 20:58:45;;;;;;;29.40;14.60;;;;;;;13.72;72.76;99775.77;436176;1252;97397;-43
2023/09/04 23:24:03;;;;;;;14.70;9.10;;;;;;;12.56;76.42;99772.76;436301;1253;107585;-43
2023/09/04 23:34:10;;;;;;;13.40;9.50;;;;;;;12.59;76.74;99772.56;436429;1261;97877;-44
2023/09/04 23:54:40;;;;;;;20.50;11.50;;;;;;;12.41;76.85;99761.42;436185;1253;108764;-42
